createdAt,value
2018-03-25T00:01:37.863Z,50.58
2018-03-25T00:04:08.837Z,50.97
2018-03-25T00:06:40.045Z,51.79
2018-03-25T00:09:11.298Z,52.50
2018-03-25T00:11:43.599Z,52.53
2018-03-25T00:14:15.654Z,52.65
2018-03-25T00:16:48.858Z,52.88
2018-03-25T00:19:19.976Z,52.86
2018-03-25T00:21:50.901Z,52.57
2018-03-25T00:24:22.246Z,52.25
2018-03-25T00:26:53.481Z,52.58
2018-03-25T00:29:25.135Z,52.50
2018-03-25T00:31:58.258Z,52.81
2018-03-25T00:34:29.385Z,53.04
2018-03-25T00:37:00.740Z,53.12
2018-03-25T00:39:32.344Z,53.21
2018-03-25T00:42:07.710Z,53.05
2018-03-25T00:44:40.449Z,52.93
2018-03-25T00:47:12.518Z,52.94
2018-03-25T00:49:43.695Z,53.29
2018-03-25T00:52:15.638Z,53.40
2018-03-25T00:55:10.379Z,53.44
2018-03-25T00:57:41.803Z,53.17
2018-03-25T01:00:16.567Z,53.54
2018-03-25T01:02:47.934Z,53.64
2018-03-25T01:05:21.121Z,53.52
2018-03-25T01:07:54.668Z,53.69
2018-03-25T01:10:26.742Z,53.47
2018-03-25T01:13:02.901Z,53.29
2018-03-25T01:15:43.369Z,53.55
2018-03-25T01:18:15.395Z,53.58
2018-03-25T01:20:52.942Z,53.71
2018-03-25T01:23:24.253Z,53.51
2018-03-25T01:25:55.781Z,53.59
2018-03-25T01:28:27.268Z,53.62
2018-03-25T01:30:59.229Z,53.85
2018-03-25T01:33:30.626Z,53.79
2018-03-25T01:36:02.239Z,53.58
2018-03-25T01:38:33.737Z,53.84
2018-03-25T01:41:05.661Z,53.94
2018-03-25T01:43:36.944Z,54.20
2018-03-25T01:46:09.070Z,54.31
2018-03-25T01:48:40.494Z,54.25
2018-03-25T01:53:48.983Z,54.63
2018-03-25T01:56:20.975Z,54.52
2018-03-25T01:58:53.870Z,54.46
2018-03-25T02:01:26.103Z,54.19
2018-03-25T02:03:58.046Z,54.09
2018-03-25T02:06:29.587Z,53.95
2018-03-25T02:09:01.196Z,53.99
2018-03-25T02:11:33.953Z,54.12
2018-03-25T02:14:06.073Z,54.24
2018-03-25T02:16:37.983Z,54.17
2018-03-25T02:19:10.171Z,54.07
2018-03-25T02:21:42.065Z,53.99
2018-03-25T02:24:14.484Z,53.89
2018-03-25T02:26:46.868Z,53.90
2018-03-25T02:29:18.223Z,53.94
2018-03-25T02:31:50.121Z,53.94
2018-03-25T02:34:21.496Z,53.82
2018-03-25T02:36:52.983Z,53.83
2018-03-25T02:39:24.628Z,53.93
2018-03-25T02:41:55.970Z,53.90
2018-03-25T02:44:27.399Z,53.97
2018-03-25T02:46:59.490Z,53.92
2018-03-25T02:49:30.684Z,53.78
2018-03-25T02:52:02.569Z,53.71
2018-03-25T02:54:34.508Z,53.74
2018-03-25T02:57:06.772Z,53.84
2018-03-25T02:59:39.382Z,54.04
2018-03-25T03:02:11.559Z,54.02
2018-03-25T03:04:43.147Z,53.99
2018-03-25T03:07:15.489Z,54.16
2018-03-25T03:09:47.112Z,54.10
2018-03-25T03:12:18.825Z,54.15
2018-03-25T03:14:50.147Z,53.96
2018-03-25T03:17:21.749Z,53.97
2018-03-25T03:19:53.712Z,53.87
2018-03-25T03:22:25.063Z,53.86
2018-03-25T03:25:06.409Z,54.15
2018-03-25T03:27:37.831Z,54.25
2018-03-25T03:30:09.399Z,54.18
2018-03-25T03:32:41.262Z,54.38
2018-03-25T03:35:12.587Z,54.19
2018-03-25T03:37:44.538Z,53.94
2018-03-25T03:40:16.842Z,54.36
2018-03-25T03:42:48.162Z,54.23
2018-03-25T03:45:21.960Z,54.21
2018-03-25T03:47:54.388Z,54.39
2018-03-25T03:50:26.854Z,54.63
2018-03-25T03:52:59.785Z,54.88
2018-03-25T03:55:31.942Z,55.18
2018-03-25T03:58:03.002Z,55.42
2018-03-25T04:00:34.760Z,55.67
2018-03-25T04:03:10.524Z,55.41
2018-03-25T04:05:42.242Z,55.66
2018-03-25T04:08:14.985Z,55.70
2018-03-25T04:10:46.566Z,56.01
2018-03-25T04:13:19.182Z,56.00
2018-03-25T04:15:51.256Z,56.39
2018-03-25T04:18:23.015Z,56.65
2018-03-25T04:20:54.840Z,56.91
2018-03-25T04:23:27.142Z,56.81
2018-03-25T04:25:59.250Z,56.97
2018-03-25T04:28:31.186Z,56.93
2018-03-25T04:31:02.990Z,56.77
2018-03-25T04:33:35.217Z,56.91
2018-03-25T04:36:06.898Z,56.89
2018-03-25T04:38:39.648Z,56.88
2018-03-25T04:41:11.743Z,57.00
2018-03-25T04:43:43.005Z,56.97
2018-03-25T04:46:17.458Z,57.08
2018-03-25T04:48:48.698Z,57.24
2018-03-25T04:51:19.913Z,57.35
2018-03-25T04:53:51.706Z,57.32
2018-03-25T04:56:23.698Z,57.35
2018-03-25T04:58:56.617Z,57.25
2018-03-25T05:01:29.608Z,57.06
2018-03-25T05:04:01.500Z,57.46
2018-03-25T05:06:32.318Z,57.87
2018-03-25T05:09:02.985Z,58.04
2018-03-25T05:11:33.422Z,57.90
2018-03-25T05:14:04.470Z,57.63
2018-03-25T05:16:35.824Z,57.56
2018-03-25T05:19:07.935Z,57.58
2018-03-25T05:21:40.438Z,57.88
2018-03-25T05:24:11.250Z,57.87
2018-03-25T05:26:42.321Z,57.92
2018-03-25T05:29:15.241Z,58.17
2018-03-25T05:31:51.389Z,58.26
2018-03-25T05:34:22.586Z,58.48
2018-03-25T05:36:53.712Z,58.43
2018-03-25T05:39:25.324Z,58.58
2018-03-25T05:41:57.236Z,58.70
2018-03-25T05:44:28.750Z,58.54
2018-03-25T05:47:00.781Z,58.37
2018-03-25T05:49:32.835Z,58.59
2018-03-25T05:52:04.725Z,58.43
2018-03-25T05:54:36.442Z,58.41
2018-03-25T05:57:08.528Z,58.45
2018-03-25T05:59:40.357Z,58.73
2018-03-25T06:02:19.398Z,58.93
2018-03-25T06:04:51.959Z,59.06
2018-03-25T06:07:23.510Z,58.92
2018-03-25T06:09:55.365Z,58.83
2018-03-25T06:12:27.004Z,58.84
2018-03-25T06:14:57.928Z,58.49
2018-03-25T06:17:29.602Z,58.19
2018-03-25T06:20:01.654Z,58.11
2018-03-25T06:22:33.857Z,57.64
2018-03-25T06:25:05.553Z,57.21
2018-03-25T06:27:37.275Z,56.97
2018-03-25T06:30:13.188Z,56.85
2018-03-25T06:32:44.639Z,56.82
2018-03-25T06:35:18.529Z,57.65
2018-03-25T06:37:51.669Z,57.60
2018-03-25T06:40:23.471Z,56.68
2018-03-25T06:43:03.502Z,56.56
2018-03-25T06:45:42.278Z,56.15
2018-03-25T06:48:14.436Z,55.70
2018-03-25T06:50:47.548Z,54.55
2018-03-25T06:53:19.628Z,53.89
2018-03-25T06:55:52.758Z,52.76
2018-03-25T06:58:28.183Z,52.70
2018-03-25T07:01:00.696Z,51.79
2018-03-25T07:03:32.957Z,52.09
2018-03-25T07:06:05.370Z,51.41
2018-03-25T07:08:50.603Z,51.27
2018-03-25T07:11:24.559Z,51.11
2018-03-25T07:13:59.051Z,51.10
2018-03-25T07:16:32.666Z,50.47
2018-03-25T07:19:04.429Z,50.19
2018-03-25T07:21:42.875Z,50.16
2018-03-25T07:24:17.624Z,49.87
2018-03-25T07:26:49.367Z,49.17
2018-03-25T07:29:22.136Z,48.58
2018-03-25T07:31:54.155Z,47.68
2018-03-25T07:34:25.487Z,46.32
2018-03-25T07:36:57.004Z,44.14
2018-03-25T07:39:28.718Z,44.27
2018-03-25T07:42:00.425Z,45.00
2018-03-25T07:44:31.749Z,44.20
2018-03-25T07:47:03.659Z,42.83
2018-03-25T07:49:35.212Z,40.20
2018-03-25T07:52:07.154Z,41.72
2018-03-25T07:54:38.873Z,41.21
2018-03-25T07:57:10.622Z,41.76
2018-03-25T07:59:44.213Z,39.83
2018-03-25T08:02:18.648Z,40.87
2018-03-25T08:07:38.971Z,39.54
2018-03-25T08:10:10.399Z,37.93
2018-03-25T08:12:41.539Z,37.20
2018-03-25T08:15:17.346Z,38.00
2018-03-25T08:17:48.989Z,38.51
2018-03-25T08:20:27.603Z,39.67
2018-03-25T08:22:59.221Z,38.21
2018-03-25T08:25:30.831Z,37.56
2018-03-25T08:28:02.139Z,37.63
2018-03-25T08:30:35.019Z,37.49
2018-03-25T08:33:06.108Z,36.65
2018-03-25T08:35:37.422Z,36.31
2018-03-25T08:38:09.139Z,36.65
2018-03-25T08:40:40.153Z,36.72
2018-03-25T08:43:12.954Z,37.05
2018-03-25T08:45:44.738Z,36.38
2018-03-25T08:48:15.974Z,36.37
2018-03-25T08:50:49.402Z,36.09
2018-03-25T08:53:20.416Z,35.65
2018-03-25T08:55:52.119Z,35.37
2018-03-25T08:58:23.398Z,35.45
2018-03-25T09:00:54.923Z,34.89
2018-03-25T09:03:30.751Z,34.56
2018-03-25T09:06:01.934Z,34.87
2018-03-25T09:08:35.008Z,35.66
2018-03-25T09:11:06.982Z,35.31
2018-03-25T09:13:41.091Z,34.65
2018-03-25T09:16:15.376Z,34.88
2018-03-25T09:18:49.563Z,34.13
2018-03-25T09:21:22.650Z,33.82
2018-03-25T09:23:53.728Z,33.19
2018-03-25T09:26:25.881Z,32.63
2018-03-25T09:28:57.075Z,33.48
2018-03-25T09:31:29.987Z,32.22
2018-03-25T09:34:03.228Z,32.84
2018-03-25T09:36:41.699Z,32.24
2018-03-25T09:39:14.590Z,32.04
2018-03-25T09:41:45.804Z,32.94
2018-03-25T09:44:18.537Z,30.92
2018-03-25T09:46:51.293Z,30.99
2018-03-25T09:49:23.687Z,30.40
2018-03-25T09:51:54.663Z,29.31
2018-03-25T09:54:25.880Z,29.33
2018-03-25T09:56:57.192Z,28.68
2018-03-25T09:59:30.941Z,29.13
2018-03-25T10:02:05.303Z,27.58
2018-03-25T10:04:36.567Z,27.29
2018-03-25T10:07:31.345Z,28.12
2018-03-25T10:10:03.396Z,27.52
2018-03-25T10:12:35.930Z,26.71
2018-03-25T10:15:08.878Z,25.71
2018-03-25T10:17:44.071Z,25.33
2018-03-25T10:20:22.031Z,25.15
2018-03-25T10:22:53.520Z,24.97
2018-03-25T10:25:27.227Z,24.47
2018-03-25T10:28:06.220Z,23.49
2018-03-25T10:30:42.279Z,24.11
2018-03-25T10:33:15.129Z,24.73
2018-03-25T10:35:58.065Z,24.15
2018-03-25T10:38:31.730Z,24.09
2018-03-25T10:41:05.208Z,23.09
2018-03-25T10:43:36.519Z,23.99
2018-03-25T10:46:08.665Z,22.86
2018-03-25T10:48:40.099Z,24.04
2018-03-25T10:51:17.310Z,22.90
2018-03-25T10:53:48.907Z,22.75
2018-03-25T10:56:22.275Z,23.40
2018-03-25T10:58:58.015Z,23.15
2018-03-25T11:01:37.518Z,22.54
2018-03-25T11:04:08.590Z,21.98
2018-03-25T11:06:40.716Z,22.22
2018-03-25T11:09:13.509Z,21.77
2018-03-25T11:11:50.801Z,22.13
2018-03-25T11:14:22.106Z,21.94
2018-03-25T11:17:01.700Z,22.25
2018-03-25T11:22:14.166Z,22.51
2018-03-25T11:24:46.414Z,22.64
2018-03-25T11:27:19.736Z,22.50
2018-03-25T11:29:51.126Z,21.36
2018-03-25T11:32:23.705Z,20.96
2018-03-25T11:34:55.022Z,21.21
2018-03-25T11:37:27.864Z,20.39
2018-03-25T11:39:59.013Z,20.23
2018-03-25T11:42:32.846Z,20.21
2018-03-25T11:45:06.770Z,19.93
2018-03-25T11:47:38.239Z,20.27
2018-03-25T11:50:12.929Z,20.82
2018-03-25T11:52:45.191Z,20.59
2018-03-25T11:55:16.147Z,21.35
2018-03-25T11:57:47.305Z,21.50
2018-03-25T12:00:27.700Z,20.75
2018-03-25T12:03:00.886Z,20.60
2018-03-25T12:05:44.574Z,20.27
2018-03-25T12:08:30.144Z,20.49
2018-03-25T12:11:01.795Z,19.91
2018-03-25T12:13:37.759Z,20.46
2018-03-25T12:16:09.530Z,20.89
2018-03-25T12:18:40.790Z,21.39
2018-03-25T12:21:11.730Z,21.44
2018-03-25T12:23:42.795Z,21.64
2018-03-25T12:26:18.325Z,22.04
2018-03-25T12:28:53.320Z,22.55
2018-03-25T12:32:16.914Z,22.14
2018-03-25T12:34:49.243Z,22.66
2018-03-25T12:37:21.411Z,22.53
2018-03-25T12:39:52.650Z,21.58
2018-03-25T12:42:25.580Z,21.47
2018-03-25T12:44:58.156Z,21.16
2018-03-25T12:47:30.328Z,21.30
2018-03-25T12:50:02.682Z,20.67
2018-03-25T12:52:34.892Z,20.74
2018-03-25T12:55:08.528Z,21.04
2018-03-25T12:57:41.593Z,21.98
2018-03-25T13:00:18.582Z,22.56
2018-03-25T13:02:49.847Z,22.41
2018-03-25T13:05:20.991Z,21.82
2018-03-25T13:07:54.582Z,21.41
2018-03-25T13:10:34.223Z,21.72
2018-03-25T13:13:05.999Z,21.38
2018-03-25T13:15:38.889Z,21.92
2018-03-25T13:18:12.188Z,22.01
2018-03-25T13:20:46.479Z,22.19
2018-03-25T13:23:18.599Z,22.52
2018-03-25T13:25:51.158Z,23.09
2018-03-25T13:28:22.794Z,23.19
2018-03-25T13:30:59.269Z,23.22
2018-03-25T13:33:37.376Z,23.13
2018-03-25T13:36:09.218Z,23.25
2018-03-25T13:38:40.959Z,23.29
2018-03-25T13:41:14.044Z,23.72
2018-03-25T13:43:46.309Z,23.56
2018-03-25T13:46:19.671Z,23.57
2018-03-25T13:48:52.285Z,23.77
2018-03-25T13:54:39.820Z,24.65
2018-03-25T13:57:12.424Z,24.52
2018-03-25T13:59:44.136Z,24.53
2018-03-25T14:02:15.678Z,24.85
2018-03-25T14:04:47.128Z,25.51
2018-03-25T14:07:21.638Z,26.17
2018-03-25T14:09:54.164Z,26.08
2018-03-25T14:12:30.099Z,26.19
2018-03-25T14:15:03.533Z,26.42
2018-03-25T14:17:34.956Z,26.61
2018-03-25T14:20:08.623Z,26.32
2018-03-25T14:22:43.307Z,26.64
2018-03-25T14:25:16.501Z,27.03
2018-03-25T14:27:48.431Z,27.23
2018-03-25T14:30:21.177Z,27.25
2018-03-25T14:32:54.493Z,27.23
2018-03-25T14:35:26.364Z,27.47
2018-03-25T14:37:59.853Z,27.74
2018-03-25T14:40:41.815Z,27.33
2018-03-25T14:43:13.208Z,27.01
2018-03-25T14:45:44.802Z,26.83
2018-03-25T14:48:15.695Z,27.40
2018-03-25T14:50:46.755Z,27.41
2018-03-25T14:53:17.817Z,27.13
2018-03-25T14:55:54.363Z,27.17
2018-03-25T14:58:28.438Z,27.31
2018-03-25T15:01:01.191Z,26.94
2018-03-25T15:03:36.098Z,27.78
2018-03-25T15:06:09.066Z,28.27
2018-03-25T15:08:41.738Z,29.02
2018-03-25T15:11:13.579Z,29.37
2018-03-25T15:13:47.425Z,29.77
2018-03-25T15:16:20.992Z,29.91
2018-03-25T15:18:52.726Z,30.05
2018-03-25T15:21:23.919Z,30.01
2018-03-25T15:23:57.335Z,30.17
2018-03-25T15:26:29.413Z,30.21
2018-03-25T15:29:30.228Z,30.29
2018-03-25T15:32:02.600Z,30.86
2018-03-25T15:34:39.813Z,31.02
2018-03-25T15:37:12.145Z,31.50
2018-03-25T15:39:44.412Z,32.39
2018-03-25T15:42:15.350Z,32.33
2018-03-25T15:44:47.342Z,32.70
2018-03-25T15:47:18.290Z,33.31
2018-03-25T15:49:50.518Z,33.10
2018-03-25T15:52:21.588Z,33.53
2018-03-25T15:54:54.107Z,33.91
2018-03-25T15:57:25.793Z,34.45
2018-03-25T15:59:57.809Z,34.69
2018-03-25T16:02:29.717Z,34.62
2018-03-25T16:05:04.968Z,34.85
2018-03-25T16:07:36.387Z,34.92
2018-03-25T16:10:08.009Z,34.77
2018-03-25T16:13:02.793Z,34.69
2018-03-25T16:15:35.198Z,35.05
2018-03-25T16:18:06.646Z,35.23
2018-03-25T16:20:38.098Z,35.67
2018-03-25T16:23:18.776Z,35.70
2018-03-25T16:25:52.583Z,36.06
2018-03-25T16:28:30.782Z,36.29
2018-03-25T16:31:14.366Z,36.00
2018-03-25T16:33:45.863Z,36.08
2018-03-25T16:36:19.728Z,36.12
2018-03-25T16:38:53.803Z,36.24
2018-03-25T16:41:25.257Z,36.30
2018-03-25T16:43:57.864Z,36.10
2018-03-25T16:46:29.304Z,35.92
2018-03-25T16:49:01.076Z,35.94
2018-03-25T16:51:32.220Z,36.03
2018-03-25T16:54:10.322Z,36.17
2018-03-25T16:56:44.784Z,36.25
2018-03-25T16:59:16.717Z,36.06
2018-03-25T17:01:50.985Z,36.01
2018-03-25T17:04:37.997Z,36.03
2018-03-25T17:07:12.420Z,36.47
2018-03-25T17:09:44.545Z,36.53
2018-03-25T17:12:15.918Z,36.66
2018-03-25T17:14:48.849Z,36.95
2018-03-25T17:17:20.675Z,36.83
2018-03-25T17:19:51.967Z,36.83
2018-03-25T17:22:23.264Z,37.15
2018-03-25T17:24:55.259Z,37.43
2018-03-25T17:27:27.110Z,37.39
2018-03-25T17:29:58.544Z,37.60
2018-03-25T17:32:30.657Z,37.54
2018-03-25T17:35:02.479Z,37.91
2018-03-25T17:37:34.345Z,37.94
2018-03-25T17:40:06.757Z,38.13
2018-03-25T17:42:37.986Z,37.68
2018-03-25T17:45:09.738Z,37.77
2018-03-25T17:47:47.704Z,38.03
2018-03-25T17:50:22.258Z,38.20
2018-03-25T17:52:56.259Z,37.97
2018-03-25T17:55:34.472Z,38.39
2018-03-25T17:58:12.866Z,38.33
2018-03-25T18:00:46.566Z,38.26
2018-03-25T18:03:19.377Z,38.43
2018-03-25T18:05:52.828Z,38.37
2018-03-25T18:08:24.112Z,38.40
2018-03-25T18:10:54.928Z,38.34
2018-03-25T18:13:25.934Z,38.19
2018-03-25T18:16:02.332Z,38.39
2018-03-25T18:18:33.665Z,38.45
2018-03-25T18:21:04.781Z,38.40
2018-03-25T18:23:36.051Z,38.67
2018-03-25T18:26:07.975Z,38.89
2018-03-25T18:28:40.652Z,39.01
2018-03-25T18:31:12.484Z,38.72
2018-03-25T18:33:46.280Z,38.81
2018-03-25T18:36:17.446Z,39.03
2018-03-25T18:38:48.244Z,39.07
2018-03-25T18:41:19.287Z,39.23
2018-03-25T18:46:48.285Z,39.27
2018-03-25T18:49:19.341Z,39.53
2018-03-25T18:51:51.817Z,39.34
2018-03-25T18:54:22.946Z,39.47
2018-03-25T18:56:55.071Z,39.71
2018-03-25T18:59:29.101Z,39.68
2018-03-25T19:02:00.385Z,39.54
2018-03-25T19:04:31.491Z,39.77
2018-03-25T19:07:03.828Z,39.69
2018-03-25T19:09:34.920Z,39.30
2018-03-25T19:12:06.573Z,39.42
2018-03-25T19:14:38.210Z,39.30
2018-03-25T19:17:09.443Z,39.19
2018-03-25T19:19:41.196Z,39.16
2018-03-25T19:22:12.447Z,39.30
2018-03-25T19:24:45.051Z,39.49
2018-03-25T19:27:16.681Z,39.54
2018-03-25T19:29:48.247Z,39.77
2018-03-25T19:32:20.369Z,39.63
2018-03-25T19:34:51.543Z,39.90
2018-03-25T19:37:22.909Z,39.95
2018-03-25T19:39:54.953Z,39.88
2018-03-25T19:42:26.923Z,39.78
2018-03-25T19:44:58.334Z,39.53
2018-03-25T19:47:29.525Z,39.27
2018-03-25T19:50:01.221Z,39.17
2018-03-25T19:52:32.277Z,39.16
2018-03-25T19:55:03.728Z,39.26
2018-03-25T19:57:35.493Z,39.09
2018-03-25T20:00:15.575Z,39.12
2018-03-25T20:02:47.068Z,38.93
2018-03-25T20:05:19.680Z,38.98
2018-03-25T20:10:53.724Z,39.09
2018-03-25T20:13:24.970Z,39.24
2018-03-25T20:16:15.763Z,39.55
2018-03-25T20:18:52.621Z,39.86
2018-03-25T20:21:23.458Z,40.25
2018-03-25T20:23:55.333Z,40.74
2018-03-25T20:26:26.210Z,40.83
2018-03-25T20:28:58.275Z,41.01
2018-03-25T20:31:29.508Z,41.43
2018-03-25T20:34:00.390Z,41.43
2018-03-25T20:36:32.175Z,41.58
2018-03-25T20:39:03.098Z,41.72
2018-03-25T20:41:34.493Z,42.05
2018-03-25T20:44:05.847Z,42.21
2018-03-25T20:46:38.309Z,42.28
2018-03-25T20:49:09.724Z,42.48
2018-03-25T20:51:41.042Z,42.49
2018-03-25T20:54:12.380Z,42.45
2018-03-25T20:56:45.222Z,43.02
2018-03-25T20:59:16.380Z,42.85
2018-03-25T21:01:48.784Z,42.84
2018-03-25T21:04:19.780Z,43.28
2018-03-25T21:06:55.578Z,43.12
2018-03-25T21:09:28.071Z,43.15
2018-03-25T21:12:01.626Z,43.35
2018-03-25T21:14:34.637Z,43.38
2018-03-25T21:17:06.568Z,43.47
2018-03-25T21:19:38.575Z,43.22
2018-03-25T21:22:10.733Z,43.21
2018-03-25T21:24:41.830Z,43.52
2018-03-25T21:27:12.766Z,43.56
2018-03-25T21:29:44.315Z,43.57
2018-03-25T21:32:15.501Z,43.53
2018-03-25T21:39:48.370Z,43.80
2018-03-25T21:45:17.537Z,44.16
2018-03-25T21:47:49.656Z,44.31
2018-03-25T21:50:20.648Z,44.25
2018-03-25T21:52:51.982Z,44.19
2018-03-25T21:55:22.660Z,43.95
2018-03-25T21:57:53.825Z,43.85
2018-03-25T22:00:25.794Z,43.87
2018-03-25T22:02:57.181Z,44.19
2018-03-25T22:05:28.492Z,44.22
2018-03-25T22:07:59.732Z,44.18
2018-03-25T22:10:31.226Z,44.29
2018-03-25T22:13:02.298Z,44.26
2018-03-25T22:15:33.677Z,44.11
2018-03-25T22:18:06.332Z,43.98
2018-03-25T22:20:38.365Z,43.84
2018-03-25T22:23:11.169Z,43.99
2018-03-25T22:25:42.087Z,44.17
2018-03-25T22:33:47.684Z,43.54
2018-03-25T22:36:19.058Z,43.46
2018-03-25T22:38:50.857Z,43.75
2018-03-25T22:41:26.237Z,43.82
2018-03-25T22:43:57.595Z,44.27
2018-03-25T22:46:29.656Z,44.29
2018-03-25T22:49:01.481Z,44.57
2018-03-25T22:51:33.155Z,44.61
2018-03-25T22:54:04.530Z,44.81
2018-03-25T22:56:38.235Z,44.85
2018-03-25T22:59:11.358Z,45.02
2018-03-25T23:01:42.387Z,44.93
2018-03-25T23:04:13.378Z,45.29
2018-03-25T23:06:44.486Z,45.71
2018-03-25T23:09:16.481Z,45.82
2018-03-25T23:11:47.503Z,45.83
2018-03-25T23:14:20.323Z,46.27
2018-03-25T23:16:53.328Z,46.93
2018-03-25T23:19:25.166Z,47.25
2018-03-25T23:21:56.442Z,47.80
2018-03-25T23:24:27.582Z,48.25
2018-03-25T23:26:58.591Z,48.50
2018-03-25T23:29:29.867Z,48.65
2018-03-25T23:32:02.086Z,49.00
2018-03-25T23:34:33.458Z,49.06
2018-03-25T23:37:05.938Z,50.29
2018-03-25T23:39:37.187Z,51.02
2018-03-25T23:42:09.327Z,50.94
2018-03-25T23:44:41.415Z,50.97
2018-03-25T23:47:15.046Z,51.30
2018-03-25T23:49:47.451Z,52.17
2018-03-25T23:52:19.721Z,52.90
2018-03-25T23:54:50.805Z,53.22
2018-03-25T23:57:23.785Z,53.36
2018-03-25T23:59:55.084Z,53.62
